Time;durP1;ratioP1;P1;durP2;ratioP2;P2;SDS_P1;SDS_P2;PMS_P1;PMS_P2;Temp;Humidity;BMP_temperature;BMP_pressure;BME280_temperature;BME280_humidity;BME280_pressure;Samples;Min_cycle;Max_cycle;Signal;HPM_P1;HPM_P2
2023/06/02 00:00:46;;;;;;;9.63;3.70;;;12.00;1.00;;;;;;5052969;28;20240;-89
2023/06/02 00:03:11;;;;;;;7.32;2.80;;;12.00;1.00;;;;;;5052965;28;20247;-88
2023/06/02 00:05:40;;;;;;;10.13;3.20;;;12.00;1.00;;;;;;5052585;28;20178;-88
2023/06/02 00:08:06;;;;;;;9.23;3.47;;;12.00;1.00;;;;;;5052654;28;20202;-88
2023/06/02 00:10:31;;;;;;;8.82;3.00;;;11.90;1.00;;;;;;5052455;28;20246;-89
2023/06/02 00:12:57;;;;;;;10.73;3.45;;;11.90;1.00;;;;;;5053396;28;20680;-89
2023/06/02 00:15:23;;;;;;;8.48;2.92;;;11.80;1.00;;;;;;5052427;28;20209;-89
2023/06/02 00:17:48;;;;;;;5.97;2.33;;;11.60;1.00;;;;;;5053754;28;20213;-89
2023/06/02 00:20:14;;;;;;;11.85;3.25;;;11.60;1.00;;;;;;5052456;28;20248;-90
2023/06/02 00:22:41;;;;;;;11.30;3.23;;;11.50;1.00;;;;;;5052372;28;20233;-88
2023/06/02 00:25:07;;;;;;;10.07;3.37;;;11.50;1.00;;;;;;5052610;28;20244;-87
2023/06/02 00:27:33;;;;;;;8.73;2.67;;;11.70;1.00;;;;;;5052466;28;20312;-88
2023/06/02 00:29:58;;;;;;;16.13;3.63;;;11.70;1.00;;;;;;5052218;28;20301;-88
2023/06/02 00:32:24;;;;;;;8.35;3.05;;;11.70;1.00;;;;;;5053150;28;20194;-88
2023/06/02 00:34:49;;;;;;;9.48;3.20;;;11.70;1.00;;;;;;5052232;28;20178;-88
2023/06/02 00:37:15;;;;;;;10.57;3.17;;;11.60;1.00;;;;;;5053514;28;20722;-88
2023/06/02 00:39:41;;;;;;;7.67;2.67;;;11.60;1.00;;;;;;5051884;28;20911;-88
2023/06/02 00:42:07;;;;;;;7.18;3.28;;;11.60;1.00;;;;;;5052061;28;20300;-88
2023/06/02 00:44:32;;;;;;;11.38;2.97;;;11.70;1.00;;;;;;5051948;28;20640;-88
2023/06/02 00:46:58;;;;;;;9.43;3.00;;;11.70;1.00;;;;;;5052046;28;20178;-88
2023/06/02 00:49:24;;;;;;;8.50;2.38;;;11.60;1.00;;;;;;5051671;28;20228;-88
2023/06/02 00:51:50;;;;;;;8.97;3.07;;;11.50;1.00;;;;;;5052288;28;20213;-88
2023/06/02 00:54:16;;;;;;;6.67;2.47;;;11.30;1.00;;;;;;5053079;28;20225;-88
2023/06/02 00:56:42;;;;;;;10.43;3.20;;;11.20;1.00;;;;;;5051840;28;20232;-88
2023/06/02 00:59:08;;;;;;;9.53;3.07;;;11.30;1.00;;;;;;5051820;28;20192;-88
2023/06/02 01:01:35;;;;;;;8.80;2.63;;;11.30;1.00;;;;;;5052841;28;20833;-88
2023/06/02 01:04:01;;;;;;;8.03;2.63;;;11.30;1.00;;;;;;5051667;28;20214;-88
2023/06/02 01:06:35;;;;;;;11.00;3.40;;;11.30;1.00;;;;;;5051749;28;20182;-89
2023/06/02 01:09:07;;;;;;;8.83;3.13;;;11.40;1.00;;;;;;5051681;28;20186;-88
2023/06/02 01:11:35;;;;;;;9.90;2.60;;;11.30;1.00;;;;;;5051427;28;20318;-88
2023/06/02 01:14:02;;;;;;;5.85;2.40;;;11.20;1.00;;;;;;5051371;28;20182;-89
2023/06/02 01:16:28;;;;;;;8.60;2.80;;;11.10;1.00;;;;;;5051729;28;20193;-88
2023/06/02 01:18:54;;;;;;;8.50;2.80;;;10.70;1.00;;;;;;5051957;28;20182;-88
2023/06/02 01:21:28;;;;;;;11.50;3.23;;;11.40;1.00;;;;;;5051473;28;20217;-88
2023/06/02 01:23:54;;;;;;;8.00;2.70;;;10.70;1.00;;;;;;5051335;28;20193;-88
2023/06/02 01:26:19;;;;;;;12.43;2.97;;;10.50;1.00;;;;;;5051341;28;20182;-89
2023/06/02 01:28:45;;;;;;;11.17;2.53;;;10.60;1.00;;;;;;5048891;28;20560;-88
2023/06/02 01:31:18;;;;;;;9.33;2.83;;;10.70;1.00;;;;;;5051851;28;20810;-88
2023/06/02 01:34:08;;;;;;;7.03;2.60;;;10.80;1.00;;;;;;5050887;28;20263;-89
2023/06/02 01:36:37;;;;;;;9.90;2.53;;;10.80;1.00;;;;;;5050614;28;20189;-89
2023/06/02 01:39:05;;;;;;;11.33;3.40;;;10.70;1.00;;;;;;5050590;28;20178;-89
2023/06/02 01:41:34;;;;;;;9.47;2.77;;;10.40;1.00;;;;;;5050511;28;20567;-88
2023/06/02 01:44:02;;;;;;;9.17;2.70;;;10.10;1.00;;;;;;5050591;28;20337;-89
2023/06/02 01:46:28;;;;;;;8.40;2.77;;;10.40;1.00;;;;;;5050157;28;20174;-88
2023/06/02 01:48:55;;;;;;;10.57;2.70;;;10.50;1.00;;;;;;5050235;28;20738;-89
2023/06/02 01:51:21;;;;;;;12.90;2.90;;;10.60;1.00;;;;;;5050378;28;20206;-89
2023/06/02 01:53:46;;;;;;;10.13;2.80;;;10.50;1.00;;;;;;5052164;28;20190;-88
2023/06/02 01:56:12;;;;;;;8.67;2.77;;;10.60;1.00;;;;;;5047898;28;20671;-89
2023/06/02 01:58:38;;;;;;;8.67;2.73;;;10.50;1.00;;;;;;5047335;28;20205;-89
2023/06/02 02:01:03;;;;;;;8.83;2.90;;;10.60;1.00;;;;;;5046829;28;20263;-88
2023/06/02 02:03:30;;;;;;;7.43;3.20;;;10.60;1.00;;;;;;5047568;28;20186;-88
2023/06/02 02:05:56;;;;;;;11.50;3.03;;;10.70;1.00;;;;;;5047791;28;20663;-89
2023/06/02 02:08:22;;;;;;;10.07;2.63;;;10.80;1.00;;;;;;5043042;28;20228;-88
2023/06/02 02:10:47;;;;;;;8.33;2.80;;;10.80;1.00;;;;;;5048255;28;20198;-89
2023/06/02 02:13:13;;;;;;;11.50;3.10;;;10.70;1.00;;;;;;5046873;28;20245;-88
2023/06/02 02:15:39;;;;;;;8.53;3.10;;;10.60;1.00;;;;;;5048332;28;20194;-89
2023/06/02 02:18:05;;;;;;;10.03;2.63;;;10.70;1.00;;;;;;5047009;28;20276;-89
2023/06/02 02:20:30;;;;;;;9.97;2.87;;;10.70;1.00;;;;;;5046903;28;20206;-89
2023/06/02 02:22:56;;;;;;;6.43;2.47;;;10.70;1.00;;;;;;5047547;28;20220;-89
2023/06/02 02:25:22;;;;;;;8.30;2.43;;;10.70;1.00;;;;;;5047094;28;20209;-88
2023/06/02 02:27:48;;;;;;;7.27;2.40;;;10.80;1.00;;;;;;5046828;28;20183;-89
2023/06/02 02:30:14;;;;;;;11.33;3.03;;;10.80;1.00;;;;;;5047360;28;20552;-89
2023/06/02 02:32:43;;;;;;;7.67;3.23;;;10.70;1.00;;;;;;5047604;28;20201;-89
2023/06/02 02:35:09;;;;;;;8.93;3.10;;;10.50;1.00;;;;;;5046931;28;20716;-89
2023/06/02 02:37:35;;;;;;;8.20;2.73;;;10.50;1.00;;;;;;5048599;28;20182;-89
2023/06/02 02:40:01;;;;;;;11.63;3.37;;;10.50;1.00;;;;;;5046654;28;20707;-89
2023/06/02 02:42:26;;;;;;;8.93;2.80;;;10.50;1.00;;;;;;5048123;28;20209;-88
2023/06/02 02:44:52;;;;;;;10.73;3.67;;;10.50;1.00;;;;;;5048742;28;20215;-89
2023/06/02 02:47:18;;;;;;;12.50;3.10;;;10.50;1.00;;;;;;5047348;28;20190;-89
2023/06/02 02:49:43;;;;;;;7.00;2.50;;;10.50;1.00;;;;;;5047681;28;20210;-88
2023/06/02 02:52:09;;;;;;;8.67;2.80;;;10.60;1.00;;;;;;5047376;28;20599;-89
2023/06/02 02:54:34;;;;;;;9.77;2.73;;;10.60;1.00;;;;;;5048940;28;20231;-89
2023/06/02 02:57:00;;;;;;;9.40;2.67;;;11.00;1.00;;;;;;5048340;28;20186;-89
2023/06/02 02:59:26;;;;;;;9.87;3.10;;;10.60;1.00;;;;;;5051319;28;20186;-89
2023/06/02 03:01:51;;;;;;;10.80;2.70;;;10.70;1.00;;;;;;5052344;28;20199;-88
2023/06/02 03:04:22;;;;;;;7.87;2.60;;;10.60;1.00;;;;;;5052374;28;20174;-89
2023/06/02 03:06:49;;;;;;;9.27;2.70;;;10.70;1.00;;;;;;5051155;28;20182;-89
2023/06/02 03:09:15;;;;;;;7.87;3.00;;;10.80;1.00;;;;;;5051716;28;20197;-90
2023/06/02 03:11:42;;;;;;;9.37;2.97;;;10.70;1.00;;;;;;5052498;28;20213;-89
2023/06/02 03:14:08;;;;;;;8.77;2.53;;;10.70;1.00;;;;;;5051816;28;20179;-89
2023/06/02 03:16:34;;;;;;;7.70;2.97;;;10.70;1.00;;;;;;5052127;28;20190;-89
2023/06/02 03:19:00;;;;;;;14.53;3.33;;;10.70;1.00;;;;;;5051260;28;20197;-89
2023/06/02 03:21:26;;;;;;;9.03;2.93;;;10.70;1.00;;;;;;5048104;28;20214;-89
2023/06/02 03:23:53;;;;;;;11.20;2.47;;;10.70;1.00;;;;;;5052481;28;20189;-89
2023/06/02 03:26:25;;;;;;;7.67;2.73;;;10.60;1.00;;;;;;5050853;28;20202;-89
2023/06/02 03:28:52;;;;;;;10.53;2.90;;;10.60;1.00;;;;;;5051364;28;20249;-89
2023/06/02 03:31:17;;;;;;;8.57;2.77;;;10.70;1.00;;;;;;5050845;28;20699;-89
2023/06/02 03:33:43;;;;;;;8.23;2.80;;;10.80;1.00;;;;;;5050823;28;20273;-89
2023/06/02 03:36:09;;;;;;;9.80;2.77;;;10.80;1.00;;;;;;5050831;28;20608;-89
2023/06/02 03:38:35;;;;;;;9.77;3.07;;;10.80;1.00;;;;;;5051343;28;20222;-89
2023/06/02 03:41:00;;;;;;;11.40;2.77;;;10.80;1.00;;;;;;5050280;28;20198;-89
2023/06/02 03:43:26;;;;;;;9.27;2.90;;;10.80;1.00;;;;;;5050164;28;20706;-89
2023/06/02 03:45:51;;;;;;;11.23;3.17;;;10.70;1.00;;;;;;5050659;28;20190;-90
2023/06/02 03:48:17;;;;;;;12.00;3.17;;;10.70;1.00;;;;;;5049986;28;20190;-90
2023/06/02 03:50:42;;;;;;;9.93;3.20;;;10.70;1.00;;;;;;5050314;28;20214;-89
2023/06/02 03:53:08;;;;;;;11.00;3.93;;;10.80;1.00;;;;;;5049966;28;20189;-89
2023/06/02 03:55:33;;;;;;;8.00;2.70;;;10.90;1.00;;;;;;5050522;28;20300;-89
2023/06/02 03:57:59;;;;;;;10.60;2.97;;;11.00;1.00;;;;;;5050265;28;20213;-89
2023/06/02 04:00:25;;;;;;;8.27;2.90;;;11.00;1.00;;;;;;5050327;28;20214;-89
2023/06/02 04:02:50;;;;;;;8.57;2.63;;;11.00;1.00;;;;;;5050088;28;20246;-90
2023/06/02 04:05:21;;;;;;;10.10;3.50;;;11.00;1.00;;;;;;5049402;28;20708;-90
2023/06/02 04:07:47;;;;;;;10.10;2.50;;;11.00;1.00;;;;;;5048752;28;20190;-89
2023/06/02 04:10:12;;;;;;;8.93;2.83;;;11.00;1.00;;;;;;5050310;28;20209;-89
2023/06/02 04:12:38;;;;;;;8.97;3.17;;;11.00;1.00;;;;;;5051794;28;21109;-89
2023/06/02 04:15:03;;;;;;;12.50;3.57;;;11.00;1.00;;;;;;5050498;28;20197;-90
2023/06/02 04:17:29;;;;;;;10.90;3.07;;;11.10;1.00;;;;;;5049596;28;20194;-91
2023/06/02 04:19:55;;;;;;;8.13;2.83;;;11.10;1.00;;;;;;5050224;28;20206;-90
2023/06/02 04:22:21;;;;;;;8.83;2.60;;;11.20;1.00;;;;;;5049970;28;20229;-89
2023/06/02 04:24:46;;;;;;;11.93;3.40;;;11.40;1.00;;;;;;5050720;28;20190;-89
2023/06/02 04:27:16;;;;;;;11.93;3.07;;;11.40;1.00;;;;;;5049759;28;20704;-89
2023/06/02 04:29:42;;;;;;;11.20;2.97;;;11.50;1.00;;;;;;5049460;28;20217;-89
2023/06/02 04:32:07;;;;;;;7.63;2.97;;;11.50;1.00;;;;;;5048979;28;20623;-90
2023/06/02 04:34:33;;;;;;;9.60;3.00;;;11.70;1.00;;;;;;5049687;28;20190;-90
2023/06/02 04:36:59;;;;;;;9.20;3.13;;;11.70;1.00;;;;;;5050650;28;20265;-88
2023/06/02 04:39:24;;;;;;;8.00;2.90;;;11.60;1.00;;;;;;5049435;28;20286;-89
2023/06/02 04:41:50;;;;;;;8.40;2.80;;;11.60;1.00;;;;;;5049431;28;20205;-89
2023/06/02 04:44:18;;;;;;;16.90;3.47;;;11.50;1.00;;;;;;5048589;28;20675;-89
2023/06/02 04:46:44;;;;;;;10.73;2.80;;;11.50;1.00;;;;;;5049765;28;20214;-89
2023/06/02 04:49:10;;;;;;;9.33;2.73;;;11.70;1.00;;;;;;5049138;28;20240;-89
2023/06/02 04:51:37;;;;;;;10.43;3.17;;;11.80;1.00;;;;;;5046645;28;20260;-89
2023/06/02 04:54:03;;;;;;;11.27;3.10;;;11.90;1.00;;;;;;5049977;28;20267;-89
2023/06/02 04:56:30;;;;;;;10.93;3.25;;;12.10;1.00;;;;;;5048843;28;20660;-89
2023/06/02 04:58:56;;;;;;;11.27;3.72;;;12.40;1.00;;;;;;5049914;28;20292;-89
2023/06/02 05:01:22;;;;;;;8.43;2.85;;;12.60;1.00;;;;;;5047533;28;20292;-89
2023/06/02 05:03:47;;;;;;;10.35;2.80;;;13.00;1.00;;;;;;5049879;28;20182;-89
2023/06/02 05:06:13;;;;;;;7.90;2.40;;;13.30;1.00;;;;;;5048253;28;20201;-90
2023/06/02 05:08:39;;;;;;;9.02;2.92;;;13.60;1.00;;;;;;5048564;28;20181;-89
2023/06/02 05:11:05;;;;;;;11.10;2.78;;;13.50;1.00;;;;;;5048614;28;20901;-90
2023/06/02 05:13:31;;;;;;;9.48;2.90;;;13.40;1.00;;;;;;5048466;28;20675;-90
2023/06/02 05:15:57;;;;;;;7.40;2.35;;;13.30;1.00;;;;;;5048355;28;20194;-89
2023/06/02 05:18:23;;;;;;;8.95;3.00;;;13.10;1.00;;;;;;5045524;28;20185;-89
2023/06/02 05:20:50;;;;;;;11.90;2.83;;;13.10;1.00;;;;;;5045395;28;20779;-90
2023/06/02 05:23:32;;;;;;;8.73;2.85;;;13.40;1.00;;;;;;5046641;28;20202;-89
2023/06/02 05:25:58;;;;;;;11.48;3.17;;;13.30;1.00;;;;;;5047528;28;20175;-90
2023/06/02 05:28:23;;;;;;;11.48;3.00;;;12.80;1.00;;;;;;5047825;28;20312;-89
2023/06/02 05:30:49;;;;;;;10.30;2.72;;;12.80;1.00;;;;;;5045777;28;20246;-89
2023/06/02 05:33:15;;;;;;;9.82;3.05;;;12.70;1.00;;;;;;5043746;28;20230;-86
2023/06/02 05:35:41;;;;;;;10.25;3.28;;;12.80;1.00;;;;;;5045327;28;20236;-87
2023/06/02 05:38:07;;;;;;;9.45;3.17;;;12.70;1.00;;;;;;5045178;28;20664;-87
2023/06/02 05:40:32;;;;;;;14.50;3.22;;;13.00;1.00;;;;;;5046018;28;20198;-89
2023/06/02 05:42:58;;;;;;;10.93;3.50;;;13.30;1.00;;;;;;5044311;28;20240;-89
2023/06/02 05:45:23;;;;;;;11.80;2.90;;;13.60;1.00;;;;;;5044793;28;20186;-87
2023/06/02 05:47:49;;;;;;;9.75;3.20;;;13.90;1.00;;;;;;5046038;28;21087;-88
2023/06/02 05:50:15;;;;;;;11.52;3.03;;;;;;;;;;5044698;28;20832;-88
2023/06/02 05:52:41;;;;;;;11.60;3.47;;;14.40;78.40;;;;;;5044505;28;20194;-88
2023/06/02 05:55:07;;;;;;;10.88;3.30;;;14.80;1.00;;;;;;5045783;28;20186;-88
2023/06/02 05:57:32;;;;;;;11.82;3.17;;;15.20;1.00;;;;;;5044761;28;20265;-90
2023/06/02 05:59:58;;;;;;;12.38;3.00;;;;;;;;;;5044308;28;20232;-89
2023/06/02 06:02:24;;;;;;;11.18;2.90;;;14.80;41.70;;;;;;5045638;28;20206;-89
2023/06/02 06:04:49;;;;;;;11.80;3.05;;;14.80;1.00;;;;;;5045951;28;20185;-89
2023/06/02 06:07:15;;;;;;;10.38;3.42;;;16.50;1.00;;;;;;5044797;28;20220;-89
2023/06/02 06:09:41;;;;;;;11.25;3.58;;;15.10;1.00;;;;;;5045789;28;20286;-90
2023/06/02 06:12:07;;;;;;;9.05;2.58;;;;;;;;;;5044349;28;20249;-89
2023/06/02 06:14:32;;;;;;;13.88;3.33;;;14.80;34.80;;;;;;5044233;28;20178;-89
2023/06/02 06:16:58;;;;;;;14.65;3.85;;;;;;;;;;5044837;28;20194;-89
2023/06/02 06:19:24;;;;;;;11.57;3.22;;;;;;;;;;5045472;28;20194;-89
2023/06/02 06:21:50;;;;;;;9.48;3.40;;;;;;;;;;5045634;28;20202;-90
2023/06/02 06:24:16;;;;;;;13.07;3.47;;;14.20;47.20;;;;;;5044195;28;20205;-90
2023/06/02 06:26:41;;;;;;;8.77;3.15;;;14.30;1.00;;;;;;5044577;28;21008;-90
2023/06/02 06:29:07;;;;;;;10.05;3.90;;;14.20;1.00;;;;;;5044157;28;20671;-88
2023/06/02 06:31:33;;;;;;;10.85;3.00;;;;;;;;;;5045999;28;20733;-89
2023/06/02 06:33:59;;;;;;;11.95;3.83;;;14.00;52.20;;;;;;5047849;28;20175;-90
2023/06/02 06:36:25;;;;;;;9.93;3.63;;;13.70;1.00;;;;;;5048131;28;20285;-89
2023/06/02 06:38:51;;;;;;;15.50;4.32;;;;;;;;;;5049172;28;20316;-89
2023/06/02 06:41:17;;;;;;;15.48;3.95;;;14.10;28.60;;;;;;5047225;28;20579;-90
2023/06/02 06:43:43;;;;;;;12.70;4.63;;;;;;;;;;5046717;28;20549;-87
2023/06/02 06:46:09;;;;;;;12.63;4.10;;;;;;;;;;5047828;28;20186;-90
2023/06/02 06:48:35;;;;;;;10.63;3.65;;;14.20;60.90;;;;;;5047448;28;20182;-89
2023/06/02 06:51:01;;;;;;;10.15;3.90;;;;;;;;;;5048073;28;20252;-89
2023/06/02 06:53:27;;;;;;;10.18;3.60;;;14.50;31.00;;;;;;5047648;28;21589;-90
2023/06/02 06:55:54;;;;;;;11.90;3.55;;;15.00;1.00;;;;;;5049446;28;20186;-89
2023/06/02 06:58:20;;;;;;;13.90;4.32;;;14.80;1.00;;;;;;5049064;28;20248;-88
2023/06/02 07:00:45;;;;;;;12.55;4.05;;;15.00;1.00;;;;;;5049531;28;20218;-88
2023/06/02 07:03:11;;;;;;;12.30;3.75;;;16.00;1.00;;;;;;5049748;28;20210;-90
2023/06/02 07:05:36;;;;;;;9.40;3.67;;;16.10;1.00;;;;;;5049172;28;20190;-89
2023/06/02 07:08:02;;;;;;;11.93;3.78;;;15.20;1.00;;;;;;5050210;28;20232;-88
2023/06/02 07:10:27;;;;;;;12.30;3.95;;;15.40;1.00;;;;;;5046700;28;20198;-89
2023/06/02 07:12:53;;;;;;;13.55;3.47;;;15.50;1.00;;;;;;5044737;28;20289;-89
2023/06/02 07:15:19;;;;;;;13.68;3.80;;;15.40;1.00;;;;;;5044871;28;20216;-89
2023/06/02 07:17:44;;;;;;;15.93;3.92;;;15.30;1.00;;;;;;5044859;28;20319;-89
2023/06/02 07:20:12;;;;;;;8.23;3.65;;;15.10;1.00;;;;;;5045474;28;20417;-90
2023/06/02 07:22:38;;;;;;;9.70;4.28;;;15.60;1.00;;;;;;5045289;28;20206;-89
2023/06/02 07:25:05;;;;;;;8.10;3.50;;;15.80;1.00;;;;;;5044684;28;20181;-90
2023/06/02 07:27:31;;;;;;;8.90;3.50;;;16.20;1.00;;;;;;5044160;28;20255;-89
2023/06/02 07:29:58;;;;;;;11.98;3.88;;;18.00;1.00;;;;;;5044003;28;20306;-89
2023/06/02 07:32:23;;;;;;;8.52;3.28;;;15.10;1.00;;;;;;5044122;28;20194;-89
2023/06/02 07:34:49;;;;;;;10.70;3.72;;;15.50;1.00;;;;;;5045604;28;20524;-89
2023/06/02 07:37:15;;;;;;;10.38;3.80;;;16.20;1.00;;;;;;5044230;28;20182;-89
2023/06/02 07:39:41;;;;;;;12.20;3.83;;;;;;;;;;5044086;28;20302;-89
2023/06/02 07:42:07;;;;;;;10.35;3.28;;;17.00;1.00;;;;;;5045889;28;20210;-89
2023/06/02 07:44:33;;;;;;;7.03;3.42;;;;;;;;;;5044444;28;20261;-88
2023/06/02 07:46:59;;;;;;;9.75;3.45;;;;;;;;;;5045522;28;20265;-88
2023/06/02 07:49:25;;;;;;;11.95;4.05;;;;;;;;;;5045445;28;20716;-89
2023/06/02 07:51:51;;;;;;;10.65;3.17;;;;;;;;;;5043843;28;20194;-89
2023/06/02 07:54:17;;;;;;;12.02;3.60;;;;;;;;;;5041738;28;20190;-89
2023/06/02 07:56:43;;;;;;;7.40;3.38;;;;;;;;;;5044324;28;20241;-90
2023/06/02 07:59:11;;;;;;;10.05;3.42;;;;;;;;;;5042767;28;20198;-89
2023/06/02 08:01:37;;;;;;;8.07;3.70;;;;;;;;;;5043794;28;20221;-89
2023/06/02 08:04:03;;;;;;;10.23;3.83;;;;;;;;;;5042564;28;20197;-89
2023/06/02 08:06:29;;;;;;;10.88;3.30;;;;;;;;;;5044250;28;20549;-89
2023/06/02 08:08:55;;;;;;;12.60;3.70;;;16.80;1.00;;;;;;5044104;28;20183;-88
2023/06/02 08:11:22;;;;;;;13.65;3.72;;;16.90;1.00;;;;;;5044022;28;20289;-90
2023/06/02 08:13:48;;;;;;;8.90;3.33;;;16.40;1.00;;;;;;5044681;28;20224;-89
2023/06/02 08:16:14;;;;;;;9.52;3.15;;;16.40;1.00;;;;;;5044609;28;20187;-89
2023/06/02 08:18:39;;;;;;;8.80;3.60;;;17.00;1.00;;;;;;5045290;28;20529;-89
2023/06/02 08:21:05;;;;;;;9.43;3.65;;;17.20;1.00;;;;;;5042980;28;20676;-89
2023/06/02 08:23:32;;;;;;;11.70;3.28;;;16.80;1.00;;;;;;5043481;28;20574;-89
2023/06/02 08:25:58;;;;;;;12.68;3.70;;;16.50;1.00;;;;;;5044618;28;20294;-88
2023/06/02 08:28:25;;;;;;;8.90;3.58;;;16.30;1.00;;;;;;5044353;28;20178;-89
2023/06/02 08:30:51;;;;;;;11.93;3.47;;;16.40;1.00;;;;;;5043002;28;20248;-89
2023/06/02 08:33:18;;;;;;;10.27;3.65;;;16.20;1.00;;;;;;5042791;28;20194;-88
2023/06/02 08:35:46;;;;;;;8.57;3.92;;;16.60;1.00;;;;;;5042561;28;20194;-89
2023/06/02 08:38:17;;;;;;;12.20;3.60;;;;;;;;;;5043169;28;20265;-88
2023/06/02 08:40:42;;;;;;;7.35;3.13;;;17.30;1.00;;;;;;5044466;28;20759;-88
2023/06/02 08:43:09;;;;;;;9.25;3.58;;;18.00;1.00;;;;;;5041613;28;20210;-89
2023/06/02 08:45:35;;;;;;;10.43;3.50;;;18.60;1.00;;;;;;5045710;28;20683;-89
2023/06/02 08:48:06;;;;;;;10.68;3.75;;;17.40;1.00;;;;;;5044275;28;20190;-89
2023/06/02 08:50:38;;;;;;;7.70;3.33;;;16.80;1.00;;;;;;5041620;28;20194;-88
2023/06/02 08:53:06;;;;;;;5.82;3.20;;;18.90;1.00;;;;;;5040478;28;20311;-90
2023/06/02 08:55:32;;;;;;;9.75;3.25;;;;;;;;;;5040874;28;20218;-88
2023/06/02 08:57:59;;;;;;;9.45;3.15;;;;;;;;;;5041597;28;20186;-88
2023/06/02 09:00:25;;;;;;;7.85;3.47;;;;;;;;;;5042117;28;20210;-89
2023/06/02 09:02:52;;;;;;;10.70;3.72;;;;;;;;;;5042473;28;20217;-88
2023/06/02 09:05:19;;;;;;;15.90;3.60;;;;;;;;;;5042247;28;20189;-89
2023/06/02 09:07:46;;;;;;;7.10;3.42;;;17.30;1.00;;;;;;5042689;28;20181;-88
2023/06/02 09:10:31;;;;;;;7.15;3.10;;;17.40;1.00;;;;;;5042246;28;20238;-89
2023/06/02 09:12:57;;;;;;;8.63;3.47;;;17.60;1.00;;;;;;5042396;28;20409;-89
2023/06/02 09:15:24;;;;;;;9.60;3.60;;;17.80;1.00;;;;;;5042496;28;20182;-88
2023/06/02 09:17:50;;;;;;;7.88;3.17;;;18.20;1.00;;;;;;5043872;28;20272;-89
2023/06/02 09:20:16;;;;;;;9.30;2.67;;;18.20;1.00;;;;;;5043183;28;20817;-87
2023/06/02 09:22:57;;;;;;;9.15;3.35;;;17.90;1.00;;;;;;5044608;28;20299;-89
